sensor_id;sensor_type;location;lat;lon;timestamp;pressure;altitude;pressure_sealevel;temperature;humidity
47080;BME280;33067;49.296;14.470;2023-08-30T00:02:01;96114.37;;;17.77;47.19
47080;BME280;33067;49.296;14.470;2023-08-30T00:04:26;96120.81;;;17.79;47.13
47080;BME280;33067;49.296;14.470;2023-08-30T00:06:51;96129.86;;;17.83;47.02
47080;BME280;33067;49.296;14.470;2023-08-30T00:09:18;96135.74;;;17.64;47.06
47080;BME280;33067;49.296;14.470;2023-08-30T00:11:42;96137.51;;;17.98;46.90
47080;BME280;33067;49.296;14.470;2023-08-30T00:14:07;96137.28;;;17.87;47.02
47080;BME280;33067;49.296;14.470;2023-08-30T00:16:32;96139.78;;;18.11;47.19
47080;BME280;33067;49.296;14.470;2023-08-30T00:18:57;96144.69;;;18.02;46.87
47080;BME280;33067;49.296;14.470;2023-08-30T00:21:22;96142.35;;;18.16;46.50
47080;BME280;33067;49.296;14.470;2023-08-30T00:23:47;96140.74;;;17.83;46.60
47080;BME280;33067;49.296;14.470;2023-08-30T00:26:12;96139.43;;;17.88;47.02
47080;BME280;33067;49.296;14.470;2023-08-30T00:28:37;96141.22;;;17.87;47.18
47080;BME280;33067;49.296;14.470;2023-08-30T00:31:03;96143.17;;;17.89;47.20
47080;BME280;33067;49.296;14.470;2023-08-30T00:33:28;96143.33;;;18.06;46.87
47080;BME280;33067;49.296;14.470;2023-08-30T00:35:58;96140.01;;;17.50;47.08
47080;BME280;33067;49.296;14.470;2023-08-30T00:38:19;96134.59;;;16.94;45.36
47080;BME280;33067;49.296;14.470;2023-08-30T00:40:43;96130.11;;;18.52;44.88
47080;BME280;33067;49.296;14.470;2023-08-30T00:43:10;96123.27;;;18.76;45.11
47080;BME280;33067;49.296;14.470;2023-08-30T00:45:34;96119.50;;;18.19;45.69
47080;BME280;33067;49.296;14.470;2023-08-30T00:47:59;96118.17;;;18.23;45.92
47080;BME280;33067;49.296;14.470;2023-08-30T00:50:24;96118.85;;;17.77;46.23
47080;BME280;33067;49.296;14.470;2023-08-30T00:52:49;96121.08;;;18.22;46.35
47080;BME280;33067;49.296;14.470;2023-08-30T00:55:14;96120.08;;;18.00;46.75
47080;BME280;33067;49.296;14.470;2023-08-30T00:57:39;96125.21;;;17.82;47.25
47080;BME280;33067;49.296;14.470;2023-08-30T01:00:07;96127.29;;;17.79;47.38
47080;BME280;33067;49.296;14.470;2023-08-30T01:02:31;96130.71;;;17.72;47.48
47080;BME280;33067;49.296;14.470;2023-08-30T01:04:54;96130.55;;;17.67;47.48
47080;BME280;33067;49.296;14.470;2023-08-30T01:07:19;96123.23;;;17.81;47.11
47080;BME280;33067;49.296;14.470;2023-08-30T01:09:45;96114.69;;;17.82;47.53
47080;BME280;33067;49.296;14.470;2023-08-30T01:12:11;96107.92;;;17.60;47.59
47080;BME280;33067;49.296;14.470;2023-08-30T01:14:42;96108.07;;;17.44;47.40
47080;BME280;33067;49.296;14.470;2023-08-30T01:17:00;96114.26;;;17.62;47.49
47080;BME280;33067;49.296;14.470;2023-08-30T01:19:37;96117.17;;;17.51;47.23
47080;BME280;33067;49.296;14.470;2023-08-30T01:21:56;96115.81;;;17.51;47.11
47080;BME280;33067;49.296;14.470;2023-08-30T01:24:23;96113.41;;;17.75;46.96
47080;BME280;33067;49.296;14.470;2023-08-30T01:29:09;96111.67;;;17.51;47.41
47080;BME280;33067;49.296;14.470;2023-08-30T01:31:32;96113.32;;;17.36;47.38
47080;BME280;33067;49.296;14.470;2023-08-30T01:33:56;96110.26;;;17.57;47.19
47080;BME280;33067;49.296;14.470;2023-08-30T01:36:21;96112.94;;;17.54;47.38
47080;BME280;33067;49.296;14.470;2023-08-30T01:38:47;96114.80;;;17.66;46.90
47080;BME280;33067;49.296;14.470;2023-08-30T01:41:12;96116.51;;;17.58;47.20
47080;BME280;33067;49.296;14.470;2023-08-30T01:43:38;96117.02;;;17.68;47.21
47080;BME280;33067;49.296;14.470;2023-08-30T01:46:03;96116.98;;;17.35;47.39
47080;BME280;33067;49.296;14.470;2023-08-30T01:48:29;96114.71;;;17.39;47.30
47080;BME280;33067;49.296;14.470;2023-08-30T01:50:52;96115.02;;;17.69;47.23
47080;BME280;33067;49.296;14.470;2023-08-30T01:53:18;96119.04;;;17.43;47.25
47080;BME280;33067;49.296;14.470;2023-08-30T01:55:42;96117.16;;;17.54;47.07
47080;BME280;33067;49.296;14.470;2023-08-30T01:58:08;96113.17;;;17.58;47.08
47080;BME280;33067;49.296;14.470;2023-08-30T02:00:33;96112.80;;;17.61;47.06
47080;BME280;33067;49.296;14.470;2023-08-30T02:02:58;96110.99;;;17.23;47.11
47080;BME280;33067;49.296;14.470;2023-08-30T02:05:23;96114.86;;;17.58;46.94
47080;BME280;33067;49.296;14.470;2023-08-30T02:07:55;96118.15;;;17.57;46.79
47080;BME280;33067;49.296;14.470;2023-08-30T02:13:03;96119.36;;;17.63;46.23
47080;BME280;33067;49.296;14.470;2023-08-30T02:15:27;96119.45;;;17.82;46.26
47080;BME280;33067;49.296;14.470;2023-08-30T02:17:50;96122.21;;;17.71;46.40
47080;BME280;33067;49.296;14.470;2023-08-30T02:20:16;96124.58;;;17.71;46.36
47080;BME280;33067;49.296;14.470;2023-08-30T02:22:40;96126.34;;;17.54;46.76
47080;BME280;33067;49.296;14.470;2023-08-30T02:25:06;96129.65;;;17.54;46.77
47080;BME280;33067;49.296;14.470;2023-08-30T02:27:31;96131.44;;;17.45;46.79
47080;BME280;33067;49.296;14.470;2023-08-30T02:29:56;96126.54;;;17.64;46.45
47080;BME280;33067;49.296;14.470;2023-08-30T02:32:21;96126.40;;;17.93;46.35
47080;BME280;33067;49.296;14.470;2023-08-30T02:34:49;96125.32;;;17.86;46.06
47080;BME280;33067;49.296;14.470;2023-08-30T02:37:11;96124.47;;;17.79;46.31
47080;BME280;33067;49.296;14.470;2023-08-30T02:39:36;96124.15;;;17.59;46.32
47080;BME280;33067;49.296;14.470;2023-08-30T02:42:02;96121.09;;;17.60;45.66
47080;BME280;33067;49.296;14.470;2023-08-30T02:44:27;96123.61;;;17.61;45.55
47080;BME280;33067;49.296;14.470;2023-08-30T02:46:52;96124.47;;;17.70;45.61
47080;BME280;33067;49.296;14.470;2023-08-30T02:49:18;96119.25;;;17.61;45.32
47080;BME280;33067;49.296;14.470;2023-08-30T02:51:43;96119.13;;;17.73;45.11
47080;BME280;33067;49.296;14.470;2023-08-30T02:54:08;96118.52;;;17.85;44.94
47080;BME280;33067;49.296;14.470;2023-08-30T02:56:33;96122.02;;;17.75;45.05
47080;BME280;33067;49.296;14.470;2023-08-30T02:58:58;96122.87;;;17.87;45.07
47080;BME280;33067;49.296;14.470;2023-08-30T03:01:23;96122.62;;;17.74;45.24
47080;BME280;33067;49.296;14.470;2023-08-30T03:03:48;96121.32;;;17.77;45.16
47080;BME280;33067;49.296;14.470;2023-08-30T03:06:13;96121.27;;;18.05;44.26
47080;BME280;33067;49.296;14.470;2023-08-30T03:08:39;96121.38;;;17.55;45.02
47080;BME280;33067;49.296;14.470;2023-08-30T03:11:09;96121.29;;;17.29;44.94
47080;BME280;33067;49.296;14.470;2023-08-30T03:13:29;96121.54;;;17.87;45.03
47080;BME280;33067;49.296;14.470;2023-08-30T03:15:54;96119.72;;;18.07;44.65
47080;BME280;33067;49.296;14.470;2023-08-30T03:18:20;96120.07;;;17.95;44.73
47080;BME280;33067;49.296;14.470;2023-08-30T03:20:44;96121.08;;;17.78;44.71
47080;BME280;33067;49.296;14.470;2023-08-30T03:23:09;96120.30;;;18.07;44.51
47080;BME280;33067;49.296;14.470;2023-08-30T03:25:35;96121.91;;;17.62;44.68
47080;BME280;33067;49.296;14.470;2023-08-30T03:28:00;96123.30;;;18.06;44.44
47080;BME280;33067;49.296;14.470;2023-08-30T03:30:25;96121.93;;;17.94;44.37
47080;BME280;33067;49.296;14.470;2023-08-30T03:32:50;96124.63;;;17.63;44.75
47080;BME280;33067;49.296;14.470;2023-08-30T03:35:15;96123.40;;;17.64;44.61
47080;BME280;33067;49.296;14.470;2023-08-30T03:37:40;96125.57;;;17.81;44.97
47080;BME280;33067;49.296;14.470;2023-08-30T03:40:06;96126.81;;;17.98;44.56
47080;BME280;33067;49.296;14.470;2023-08-30T03:42:30;96128.81;;;17.82;44.85
47080;BME280;33067;49.296;14.470;2023-08-30T03:44:56;96129.78;;;17.89;44.78
47080;BME280;33067;49.296;14.470;2023-08-30T03:47:21;96133.92;;;17.77;44.79
47080;BME280;33067;49.296;14.470;2023-08-30T03:49:46;96133.04;;;17.91;44.56
47080;BME280;33067;49.296;14.470;2023-08-30T03:52:11;96136.26;;;17.47;44.99
47080;BME280;33067;49.296;14.470;2023-08-30T03:54:36;96139.05;;;17.55;44.89
47080;BME280;33067;49.296;14.470;2023-08-30T03:57:01;96138.22;;;17.93;44.78
47080;BME280;33067;49.296;14.470;2023-08-30T03:59:27;96139.14;;;17.59;45.11
47080;BME280;33067;49.296;14.470;2023-08-30T04:01:52;96138.16;;;17.76;45.16
47080;BME280;33067;49.296;14.470;2023-08-30T04:04:17;96134.38;;;17.61;45.03
47080;BME280;33067;49.296;14.470;2023-08-30T04:06:42;96131.54;;;17.79;45.09
47080;BME280;33067;49.296;14.470;2023-08-30T04:09:07;96134.50;;;17.75;45.18
47080;BME280;33067;49.296;14.470;2023-08-30T04:11:33;96135.40;;;17.86;45.32
47080;BME280;33067;49.296;14.470;2023-08-30T04:13:58;96136.07;;;17.92;45.03
47080;BME280;33067;49.296;14.470;2023-08-30T04:16:23;96138.23;;;17.58;45.43
47080;BME280;33067;49.296;14.470;2023-08-30T04:18:48;96141.56;;;17.58;45.24
47080;BME280;33067;49.296;14.470;2023-08-30T04:21:13;96139.98;;;17.44;45.16
47080;BME280;33067;49.296;14.470;2023-08-30T04:23:38;96143.36;;;17.51;45.61
47080;BME280;33067;49.296;14.470;2023-08-30T04:26:04;96143.82;;;17.70;45.57
47080;BME280;33067;49.296;14.470;2023-08-30T04:28:29;96147.13;;;17.56;45.55
47080;BME280;33067;49.296;14.470;2023-08-30T04:30:54;96150.03;;;17.50;45.34
47080;BME280;33067;49.296;14.470;2023-08-30T04:33:19;96149.95;;;17.71;45.49
47080;BME280;33067;49.296;14.470;2023-08-30T04:35:44;96147.29;;;17.86;44.68
47080;BME280;33067;49.296;14.470;2023-08-30T04:38:09;96147.57;;;17.65;45.25
47080;BME280;33067;49.296;14.470;2023-08-30T04:40:34;96146.29;;;17.49;45.62
47080;BME280;33067;49.296;14.470;2023-08-30T04:43:00;96143.65;;;17.12;46.06
47080;BME280;33067;49.296;14.470;2023-08-30T04:45:25;96149.39;;;17.37;45.69
47080;BME280;33067;49.296;14.470;2023-08-30T04:47:50;96152.51;;;17.16;46.05
47080;BME280;33067;49.296;14.470;2023-08-30T04:50:15;96151.00;;;17.34;45.55
47080;BME280;33067;49.296;14.470;2023-08-30T04:52:40;96147.84;;;17.09;46.27
47080;BME280;33067;49.296;14.470;2023-08-30T04:55:07;96141.81;;;17.01;46.48
47080;BME280;33067;49.296;14.470;2023-08-30T04:57:31;96141.03;;;17.17;46.19
47080;BME280;33067;49.296;14.470;2023-08-30T04:59:57;96145.21;;;17.27;46.05
47080;BME280;33067;49.296;14.470;2023-08-30T05:02:21;96141.14;;;17.08;46.03
47080;BME280;33067;49.296;14.470;2023-08-30T05:04:46;96143.13;;;17.05;46.24
47080;BME280;33067;49.296;14.470;2023-08-30T05:07:11;96143.76;;;17.06;46.26
47080;BME280;33067;49.296;14.470;2023-08-30T05:09:37;96146.47;;;16.89;46.39
47080;BME280;33067;49.296;14.470;2023-08-30T05:12:02;96143.32;;;17.42;46.12
47080;BME280;33067;49.296;14.470;2023-08-30T05:14:27;96144.83;;;17.11;46.06
47080;BME280;33067;49.296;14.470;2023-08-30T05:16:52;96146.34;;;16.96;46.50
47080;BME280;33067;49.296;14.470;2023-08-30T05:19:17;96149.19;;;17.19;46.13
47080;BME280;33067;49.296;14.470;2023-08-30T05:21:43;96147.56;;;17.08;46.37
47080;BME280;33067;49.296;14.470;2023-08-30T05:24:08;96147.93;;;16.97;46.43
47080;BME280;33067;49.296;14.470;2023-08-30T05:26:33;96146.74;;;16.99;46.32
47080;BME280;33067;49.296;14.470;2023-08-30T05:28:58;96152.35;;;17.22;45.85
47080;BME280;33067;49.296;14.470;2023-08-30T05:31:23;96157.77;;;16.92;46.38
47080;BME280;33067;49.296;14.470;2023-08-30T05:33:48;96159.37;;;17.17;46.58
47080;BME280;33067;49.296;14.470;2023-08-30T05:36:13;96159.52;;;17.11;46.29
47080;BME280;33067;49.296;14.470;2023-08-30T05:38:39;96162.35;;;17.33;46.00
47080;BME280;33067;49.296;14.470;2023-08-30T05:41:04;96162.16;;;17.59;45.93
47080;BME280;33067;49.296;14.470;2023-08-30T05:43:31;96161.15;;;17.41;45.80
47080;BME280;33067;49.296;14.470;2023-08-30T05:45:55;96162.14;;;17.09;46.72
47080;BME280;33067;49.296;14.470;2023-08-30T05:48:21;96162.93;;;16.63;46.79
47080;BME280;33067;49.296;14.470;2023-08-30T05:50:46;96162.07;;;16.82;46.53
47080;BME280;33067;49.296;14.470;2023-08-30T05:53:11;96166.41;;;16.77;46.63
47080;BME280;33067;49.296;14.470;2023-08-30T05:55:36;96167.26;;;16.84;46.45
47080;BME280;33067;49.296;14.470;2023-08-30T05:58:02;96163.04;;;17.20;46.01
47080;BME280;33067;49.296;14.470;2023-08-30T06:00:27;96164.48;;;17.12;45.95
47080;BME280;33067;49.296;14.470;2023-08-30T06:02:52;96164.26;;;16.92;46.39
47080;BME280;33067;49.296;14.470;2023-08-30T06:05:17;96162.67;;;16.94;46.40
47080;BME280;33067;49.296;14.470;2023-08-30T06:07:42;96166.15;;;16.78;46.54
47080;BME280;33067;49.296;14.470;2023-08-30T06:10:08;96165.28;;;17.11;46.12
47080;BME280;33067;49.296;14.470;2023-08-30T06:12:33;96165.65;;;17.00;46.01
47080;BME280;33067;49.296;14.470;2023-08-30T06:14:58;96165.35;;;17.16;46.35
47080;BME280;33067;49.296;14.470;2023-08-30T06:17:23;96166.38;;;17.25;46.30
47080;BME280;33067;49.296;14.470;2023-08-30T06:19:48;96166.14;;;17.22;46.60
47080;BME280;33067;49.296;14.470;2023-08-30T06:22:14;96168.82;;;17.31;46.60
47080;BME280;33067;49.296;14.470;2023-08-30T06:24:39;96171.53;;;17.26;46.14
47080;BME280;33067;49.296;14.470;2023-08-30T06:27:04;96166.53;;;17.25;45.96
47080;BME280;33067;49.296;14.470;2023-08-30T06:29:29;96169.19;;;17.10;46.06
47080;BME280;33067;49.296;14.470;2023-08-30T06:31:54;96168.67;;;17.14;46.18
47080;BME280;33067;49.296;14.470;2023-08-30T06:34:19;96167.79;;;17.11;46.25
47080;BME280;33067;49.296;14.470;2023-08-30T06:36:44;96172.41;;;17.24;46.11
47080;BME280;33067;49.296;14.470;2023-08-30T06:39:10;96169.89;;;17.40;45.71
47080;BME280;33067;49.296;14.470;2023-08-30T06:41:35;96174.14;;;17.48;45.62
47080;BME280;33067;49.296;14.470;2023-08-30T06:44:00;96173.12;;;17.45;45.60
47080;BME280;33067;49.296;14.470;2023-08-30T06:46:25;96175.45;;;17.29;45.98
47080;BME280;33067;49.296;14.470;2023-08-30T06:48:51;96171.94;;;17.17;45.78
47080;BME280;33067;49.296;14.470;2023-08-30T06:51:16;96171.57;;;17.10;45.87
47080;BME280;33067;49.296;14.470;2023-08-30T06:53:42;96176.26;;;17.44;45.50
47080;BME280;33067;49.296;14.470;2023-08-30T06:56:07;96175.02;;;17.23;45.94
47080;BME280;33067;49.296;14.470;2023-08-30T06:58:33;96179.50;;;16.79;45.91
47080;BME280;33067;49.296;14.470;2023-08-30T07:00:58;96178.92;;;17.20;45.63
47080;BME280;33067;49.296;14.470;2023-08-30T07:03:23;96182.82;;;17.25;45.77
47080;BME280;33067;49.296;14.470;2023-08-30T07:05:51;96179.02;;;17.00;45.71
47080;BME280;33067;49.296;14.470;2023-08-30T07:08:14;96177.42;;;17.01;45.94
47080;BME280;33067;49.296;14.470;2023-08-30T07:10:39;96173.03;;;17.33;45.84
47080;BME280;33067;49.296;14.470;2023-08-30T07:13:04;96176.27;;;17.14;45.90
47080;BME280;33067;49.296;14.470;2023-08-30T07:15:29;96177.92;;;17.30;45.86
47080;BME280;33067;49.296;14.470;2023-08-30T07:17:54;96178.23;;;17.03;46.15
47080;BME280;33067;49.296;14.470;2023-08-30T07:20:20;96180.63;;;17.30;46.12
47080;BME280;33067;49.296;14.470;2023-08-30T07:22:45;96177.43;;;17.13;45.99
47080;BME280;33067;49.296;14.470;2023-08-30T07:25:11;96179.98;;;17.03;45.80
47080;BME280;33067;49.296;14.470;2023-08-30T07:27:36;96182.04;;;17.26;45.70
47080;BME280;33067;49.296;14.470;2023-08-30T07:30:02;96182.87;;;17.30;45.55
47080;BME280;33067;49.296;14.470;2023-08-30T07:32:27;96181.97;;;16.92;45.83
47080;BME280;33067;49.296;14.470;2023-08-30T07:34:52;96186.52;;;17.20;45.82
47080;BME280;33067;49.296;14.470;2023-08-30T07:37:19;96188.96;;;17.30;45.95
47080;BME280;33067;49.296;14.470;2023-08-30T07:39:43;96189.42;;;16.94;46.12
47080;BME280;33067;49.296;14.470;2023-08-30T07:42:09;96193.13;;;16.95;46.23
47080;BME280;33067;49.296;14.470;2023-08-30T07:44:34;96191.54;;;17.12;46.02
47080;BME280;33067;49.296;14.470;2023-08-30T07:46:59;96191.82;;;17.21;45.85
47080;BME280;33067;49.296;14.470;2023-08-30T07:49:24;96192.13;;;17.34;45.73
47080;BME280;33067;49.296;14.470;2023-08-30T07:51:49;96195.26;;;17.52;45.34
47080;BME280;33067;49.296;14.470;2023-08-30T07:54:15;96200.71;;;17.29;45.63
47080;BME280;33067;49.296;14.470;2023-08-30T07:56:40;96202.97;;;17.58;45.43
47080;BME280;33067;49.296;14.470;2023-08-30T07:59:05;96205.47;;;17.57;45.24
47080;BME280;33067;49.296;14.470;2023-08-30T08:01:30;96206.35;;;17.54;45.33
47080;BME280;33067;49.296;14.470;2023-08-30T08:03:55;96209.47;;;17.48;45.18
47080;BME280;33067;49.296;14.470;2023-08-30T08:06:21;96208.59;;;17.55;45.14
47080;BME280;33067;49.296;14.470;2023-08-30T08:08:46;96211.84;;;17.66;45.17
47080;BME280;33067;49.296;14.470;2023-08-30T08:11:11;96212.99;;;17.61;45.09
47080;BME280;33067;49.296;14.470;2023-08-30T08:13:36;96213.51;;;17.53;45.15
47080;BME280;33067;49.296;14.470;2023-08-30T08:16:02;96213.38;;;17.66;45.06
47080;BME280;33067;49.296;14.470;2023-08-30T08:18:27;96217.90;;;17.34;45.11
47080;BME280;33067;49.296;14.470;2023-08-30T08:20:52;96219.73;;;17.47;45.00
47080;BME280;33067;49.296;14.470;2023-08-30T08:23:17;96222.20;;;17.36;44.83
47080;BME280;33067;49.296;14.470;2023-08-30T08:25:43;96224.29;;;18.09;44.18
47080;BME280;33067;49.296;14.470;2023-08-30T08:28:08;96227.68;;;17.96;44.44
47080;BME280;33067;49.296;14.470;2023-08-30T08:30:33;96228.03;;;17.93;44.58
47080;BME280;33067;49.296;14.470;2023-08-30T08:32:58;96230.24;;;18.14;44.54
47080;BME280;33067;49.296;14.470;2023-08-30T08:35:23;96230.95;;;18.08;44.01
47080;BME280;33067;49.296;14.470;2023-08-30T08:37:48;96232.31;;;18.06;44.06
47080;BME280;33067;49.296;14.470;2023-08-30T08:40:13;96233.25;;;17.85;44.34
47080;BME280;33067;49.296;14.470;2023-08-30T08:42:38;96230.15;;;18.35;43.77
47080;BME280;33067;49.296;14.470;2023-08-30T08:45:04;96234.94;;;18.19;43.81
47080;BME280;33067;49.296;14.470;2023-08-30T08:47:30;96235.81;;;17.97;44.14
47080;BME280;33067;49.296;14.470;2023-08-30T08:49:54;96238.96;;;18.19;44.27
47080;BME280;33067;49.296;14.470;2023-08-30T08:52:19;96238.61;;;18.09;44.23
47080;BME280;33067;49.296;14.470;2023-08-30T08:54:44;96238.88;;;18.11;44.25
47080;BME280;33067;49.296;14.470;2023-08-30T08:57:09;96239.13;;;18.26;44.30
47080;BME280;33067;49.296;14.470;2023-08-30T08:59:34;96237.59;;;18.44;44.16
47080;BME280;33067;49.296;14.470;2023-08-30T09:01:59;96239.69;;;18.05;44.05
47080;BME280;33067;49.296;14.470;2023-08-30T09:04:25;96238.56;;;18.17;43.90
47080;BME280;33067;49.296;14.470;2023-08-30T09:06:49;96240.45;;;18.37;43.74
47080;BME280;33067;49.296;14.470;2023-08-30T09:09:15;96238.21;;;18.42;43.71
47080;BME280;33067;49.296;14.470;2023-08-30T09:11:39;96242.97;;;18.30;43.69
47080;BME280;33067;49.296;14.470;2023-08-30T09:14:04;96243.71;;;18.46;43.89
47080;BME280;33067;49.296;14.470;2023-08-30T09:16:30;96241.95;;;18.56;43.80
47080;BME280;33067;49.296;14.470;2023-08-30T09:18:59;96244.07;;;18.60;43.66
47080;BME280;33067;49.296;14.470;2023-08-30T09:21:20;96245.01;;;18.39;43.58
47080;BME280;33067;49.296;14.470;2023-08-30T09:23:46;96248.31;;;18.61;43.53
47080;BME280;33067;49.296;14.470;2023-08-30T09:26:10;96247.69;;;18.65;43.25
47080;BME280;33067;49.296;14.470;2023-08-30T09:28:42;96248.66;;;18.57;43.18
47080;BME280;33067;49.296;14.470;2023-08-30T09:31:02;96253.07;;;18.37;43.28
47080;BME280;33067;49.296;14.470;2023-08-30T09:33:31;96256.14;;;18.50;43.17
47080;BME280;33067;49.296;14.470;2023-08-30T09:35:51;96260.61;;;18.30;43.66
47080;BME280;33067;49.296;14.470;2023-08-30T09:38:17;96256.27;;;18.56;43.49
47080;BME280;33067;49.296;14.470;2023-08-30T09:40:41;96255.57;;;18.80;43.41
47080;BME280;33067;49.296;14.470;2023-08-30T09:43:06;96259.48;;;18.74;43.43
47080;BME280;33067;49.296;14.470;2023-08-30T09:45:32;96258.62;;;18.78;43.09
47080;BME280;33067;49.296;14.470;2023-08-30T09:47:57;96259.58;;;18.77;43.55
47080;BME280;33067;49.296;14.470;2023-08-30T09:50:23;96265.20;;;18.25;44.76
47080;BME280;33067;49.296;14.470;2023-08-30T09:52:47;96259.37;;;18.40;44.95
47080;BME280;33067;49.296;14.470;2023-08-30T09:55:13;96260.80;;;18.60;44.83
47080;BME280;33067;49.296;14.470;2023-08-30T09:57:38;96259.08;;;18.73;44.63
47080;BME280;33067;49.296;14.470;2023-08-30T10:00:04;96257.59;;;18.77;44.28
47080;BME280;33067;49.296;14.470;2023-08-30T10:02:28;96259.31;;;18.75;44.78
47080;BME280;33067;49.296;14.470;2023-08-30T10:04:54;96257.56;;;18.65;44.28
47080;BME280;33067;49.296;14.470;2023-08-30T10:07:19;96258.65;;;18.64;44.75
47080;BME280;33067;49.296;14.470;2023-08-30T10:09:44;96261.47;;;18.76;44.87
47080;BME280;33067;49.296;14.470;2023-08-30T10:12:10;96260.62;;;18.96;44.89
47080;BME280;33067;49.296;14.470;2023-08-30T10:14:34;96259.07;;;19.03;44.56
47080;BME280;33067;49.296;14.470;2023-08-30T10:17:02;96257.96;;;19.05;44.43
47080;BME280;33067;49.296;14.470;2023-08-30T10:19:26;96257.37;;;19.24;44.63
47080;BME280;33067;49.296;14.470;2023-08-30T10:21:56;96251.07;;;19.29;45.18
47080;BME280;33067;49.296;14.470;2023-08-30T10:24:19;96253.46;;;19.25;44.80
47080;BME280;33067;49.296;14.470;2023-08-30T10:26:41;96254.25;;;19.43;43.75
47080;BME280;33067;49.296;14.470;2023-08-30T10:29:06;96254.26;;;19.32;43.74
47080;BME280;33067;49.296;14.470;2023-08-30T10:31:31;96252.74;;;19.40;44.58
47080;BME280;33067;49.296;14.470;2023-08-30T10:33:56;96250.16;;;19.31;44.23
47080;BME280;33067;49.296;14.470;2023-08-30T10:36:22;96245.74;;;18.87;44.27
47080;BME280;33067;49.296;14.470;2023-08-30T10:38:49;96245.03;;;19.24;44.08
47080;BME280;33067;49.296;14.470;2023-08-30T10:41:20;96242.08;;;19.65;43.71
47080;BME280;33067;49.296;14.470;2023-08-30T10:43:38;96239.48;;;19.21;44.45
47080;BME280;33067;49.296;14.470;2023-08-30T10:46:05;96239.56;;;19.22;42.82
47080;BME280;33067;49.296;14.470;2023-08-30T10:48:36;96238.43;;;19.32;43.11
47080;BME280;33067;49.296;14.470;2023-08-30T10:50:55;96239.82;;;19.24;43.90
47080;BME280;33067;49.296;14.470;2023-08-30T10:53:28;96239.23;;;19.63;43.16
47080;BME280;33067;49.296;14.470;2023-08-30T10:58:14;96242.43;;;19.60;43.41
47080;BME280;33067;49.296;14.470;2023-08-30T11:00:39;96242.53;;;19.35;43.60
47080;BME280;33067;49.296;14.470;2023-08-30T11:03:02;96240.81;;;19.46;44.14
47080;BME280;33067;49.296;14.470;2023-08-30T11:05:29;96238.00;;;19.48;44.08
47080;BME280;33067;49.296;14.470;2023-08-30T11:07:53;96234.99;;;19.59;43.23
47080;BME280;33067;49.296;14.470;2023-08-30T11:10:19;96233.43;;;19.73;43.39
47080;BME280;33067;49.296;14.470;2023-08-30T11:12:45;96231.88;;;19.69;43.29
47080;BME280;33067;49.296;14.470;2023-08-30T11:15:10;96233.14;;;19.52;42.42
47080;BME280;33067;49.296;14.470;2023-08-30T11:17:35;96228.05;;;19.56;42.81
47080;BME280;33067;49.296;14.470;2023-08-30T11:20:06;96229.33;;;19.60;43.20
47080;BME280;33067;49.296;14.470;2023-08-30T11:22:25;96222.98;;;19.88;42.91
47080;BME280;33067;49.296;14.470;2023-08-30T11:24:50;96223.84;;;19.50;43.45
47080;BME280;33067;49.296;14.470;2023-08-30T11:27:17;96221.11;;;19.65;43.61
47080;BME280;33067;49.296;14.470;2023-08-30T11:29:41;96218.27;;;20.09;43.31
47080;BME280;33067;49.296;14.470;2023-08-30T11:32:07;96216.06;;;20.29;42.90
47080;BME280;33067;49.296;14.470;2023-08-30T11:34:31;96216.10;;;20.27;42.72
47080;BME280;33067;49.296;14.470;2023-08-30T11:36:59;96210.49;;;20.38;42.62
47080;BME280;33067;49.296;14.470;2023-08-30T11:39:23;96212.37;;;20.32;43.26
47080;BME280;33067;49.296;14.470;2023-08-30T11:41:47;96208.95;;;20.27;42.72
47080;BME280;33067;49.296;14.470;2023-08-30T11:44:12;96210.52;;;20.38;42.93
47080;BME280;33067;49.296;14.470;2023-08-30T11:46:37;96209.92;;;20.89;43.25
47080;BME280;33067;49.296;14.470;2023-08-30T11:49:03;96211.51;;;20.60;42.79
47080;BME280;33067;49.296;14.470;2023-08-30T11:51:29;96209.41;;;20.66;43.13
47080;BME280;33067;49.296;14.470;2023-08-30T11:53:54;96205.76;;;20.69;40.88
47080;BME280;33067;49.296;14.470;2023-08-30T11:56:19;96203.70;;;20.93;40.84
47080;BME280;33067;49.296;14.470;2023-08-30T11:58:44;96201.85;;;21.03;41.28
47080;BME280;33067;49.296;14.470;2023-08-30T12:01:10;96198.25;;;20.80;40.57
47080;BME280;33067;49.296;14.470;2023-08-30T12:03:35;96195.13;;;20.91;40.55
47080;BME280;33067;49.296;14.470;2023-08-30T12:06:01;96194.41;;;20.30;40.88
47080;BME280;33067;49.296;14.470;2023-08-30T12:08:27;96196.22;;;20.73;40.42
47080;BME280;33067;49.296;14.470;2023-08-30T12:10:52;96194.76;;;20.81;40.01
47080;BME280;33067;49.296;14.470;2023-08-30T12:13:21;96192.62;;;20.83;39.53
47080;BME280;33067;49.296;14.470;2023-08-30T12:15:43;96193.12;;;20.82;39.60
47080;BME280;33067;49.296;14.470;2023-08-30T12:18:07;96193.07;;;20.73;38.76
47080;BME280;33067;49.296;14.470;2023-08-30T12:20:32;96189.31;;;20.85;38.35
47080;BME280;33067;49.296;14.470;2023-08-30T12:22:57;96185.69;;;20.90;37.68
47080;BME280;33067;49.296;14.470;2023-08-30T12:25:23;96185.93;;;21.29;38.12
47080;BME280;33067;49.296;14.470;2023-08-30T12:27:48;96181.65;;;21.32;37.52
47080;BME280;33067;49.296;14.470;2023-08-30T12:30:13;96179.88;;;21.31;37.63
47080;BME280;33067;49.296;14.470;2023-08-30T12:32:38;96174.00;;;20.67;37.60
47080;BME280;33067;49.296;14.470;2023-08-30T12:35:03;96174.61;;;20.75;37.92
47080;BME280;33067;49.296;14.470;2023-08-30T12:37:28;96172.85;;;20.80;38.10
47080;BME280;33067;49.296;14.470;2023-08-30T12:39:53;96170.91;;;21.26;37.59
47080;BME280;33067;49.296;14.470;2023-08-30T12:42:18;96171.51;;;21.08;36.30
47080;BME280;33067;49.296;14.470;2023-08-30T12:44:43;96167.35;;;21.53;36.24
47080;BME280;33067;49.296;14.470;2023-08-30T12:47:08;96163.42;;;21.81;35.93